createdAt,value
2022-11-16T00:01:45.863Z,98052.63
2022-11-16T00:04:12.757Z,98051.81
2022-11-16T00:06:40.643Z,98052.88
2022-11-16T00:09:23.198Z,98051.81
2022-11-16T00:12:03.723Z,98062.44
2022-11-16T00:14:34.999Z,98064.09
2022-11-16T00:17:02.455Z,98057.72
2022-11-16T00:19:30.301Z,98058.09
2022-11-16T00:21:57.190Z,98061.22
2022-11-16T00:24:24.592Z,98069.13
2022-11-16T00:26:55.005Z,98068.72
2022-11-16T00:29:25.132Z,98072.47
2022-11-16T00:31:53.991Z,98085.59
2022-11-16T00:34:22.143Z,98082.63
2022-11-16T00:36:49.229Z,98076.44
2022-11-16T00:39:17.448Z,98077.03
2022-11-16T00:41:45.133Z,98082.63
2022-11-16T00:44:12.788Z,98089.09
2022-11-16T00:46:40.277Z,98083.53
2022-11-16T00:49:08.291Z,98085.78
2022-11-16T00:51:36.622Z,98086.19
2022-11-16T00:54:05.874Z,98089.91
2022-11-16T00:56:32.732Z,98091.78
2022-11-16T00:58:59.759Z,98085.78
2022-11-16T01:01:26.965Z,98085.34
2022-11-16T01:03:54.133Z,98084.13
2022-11-16T01:06:23.497Z,98084.97
2022-11-16T01:08:51.313Z,98087.28
2022-11-16T01:11:38.125Z,98084.13
2022-11-16T01:14:07.840Z,98070.50
2022-11-16T01:16:35.287Z,98084.13
2022-11-16T01:19:02.986Z,98078.34
2022-11-16T01:21:29.949Z,98076.75
2022-11-16T01:23:57.404Z,98085.06
2022-11-16T01:26:24.817Z,98087.19
2022-11-16T01:28:52.618Z,98090.31
2022-11-16T01:31:19.748Z,98086.81
2022-11-16T01:33:46.861Z,98091.41
2022-11-16T01:36:15.272Z,98086.88
2022-11-16T01:38:46.771Z,98099.34
2022-11-16T01:41:20.665Z,98096.06
2022-11-16T01:44:00.879Z,98090.66
2022-11-16T01:46:29.666Z,98080.31
2022-11-16T01:49:09.262Z,98084.47
2022-11-16T01:51:37.371Z,98085.69
2022-11-16T01:54:10.497Z,98087.78
2022-11-16T01:56:39.878Z,98087.78
2022-11-16T01:59:07.794Z,98078.06
2022-11-16T02:01:34.678Z,98079.88
2022-11-16T02:04:01.964Z,98073.69
2022-11-16T02:06:50.804Z,98066.41
2022-11-16T02:10:05.963Z,98069.56
2022-11-16T02:12:47.775Z,98067.28
2022-11-16T02:15:31.390Z,98061.28
2022-11-16T02:18:07.077Z,98061.69
2022-11-16T02:21:07.532Z,98060.03
2022-11-16T02:24:04.755Z,98052.59
2022-11-16T02:26:50.103Z,98048.47
2022-11-16T02:29:29.447Z,98046.47
2022-11-16T02:32:03.511Z,98044.59
2022-11-16T02:35:05.833Z,98054.41
2022-11-16T02:37:38.219Z,98054.84
2022-11-16T02:40:11.642Z,98050.31
2022-11-16T02:42:45.720Z,98052.19
2022-11-16T02:45:20.698Z,98051.63
2022-11-16T02:47:49.886Z,98061.97
2022-11-16T02:50:19.798Z,98064.47
2022-11-16T02:52:46.656Z,98052.69
2022-11-16T02:55:13.833Z,98056.22
2022-11-16T02:57:56.578Z,98067.19
2022-11-16T03:00:28.030Z,98064.28
2022-11-16T03:03:08.776Z,98059.31
2022-11-16T03:05:45.287Z,98066.75
2022-11-16T03:08:30.192Z,98061.59
2022-11-16T03:11:24.602Z,98062.84
2022-11-16T03:13:58.436Z,98061.56
2022-11-16T03:16:54.949Z,98062.38
2022-11-16T03:19:54.578Z,98051.63
2022-11-16T03:22:33.856Z,98053.69
2022-11-16T03:25:01.217Z,98052.44
2022-11-16T03:27:40.921Z,98048.69
2022-11-16T03:30:13.791Z,98048.69
2022-11-16T03:32:55.124Z,98042.69
2022-11-16T03:35:27.849Z,98032.78
2022-11-16T03:37:58.899Z,98030.09
2022-11-16T03:40:29.727Z,98024.91
2022-11-16T03:42:58.618Z,98028.66
2022-11-16T03:45:25.768Z,98033.44
2022-11-16T03:47:52.608Z,98022.91
2022-11-16T03:50:19.424Z,98036.78
2022-11-16T03:52:46.403Z,98037.00
2022-11-16T03:55:13.682Z,98035.53
2022-11-16T03:57:40.482Z,98041.56
2022-11-16T04:00:08.727Z,98042.63
2022-11-16T04:02:35.612Z,98045.50
2022-11-16T04:05:21.262Z,98034.13
2022-11-16T04:08:07.656Z,98035.38
2022-11-16T04:10:53.582Z,98035.38
2022-11-16T04:14:12.701Z,98031.69
2022-11-16T04:16:58.247Z,98029.34
2022-11-16T04:19:43.543Z,98016.31
2022-11-16T04:22:40.989Z,98013.22
2022-11-16T04:25:18.816Z,98023.16
2022-11-16T04:28:04.213Z,98006.63
2022-11-16T04:30:51.367Z,98018.59
2022-11-16T04:33:36.686Z,98025.22
2022-11-16T04:36:22.032Z,98024.19
2022-11-16T04:38:48.765Z,98023.56
2022-11-16T04:41:34.098Z,98024.38
2022-11-16T04:44:00.746Z,98023.34
2022-11-16T04:46:45.997Z,98018.41
2022-11-16T04:49:12.703Z,98021.91
2022-11-16T04:51:39.475Z,98021.28
2022-11-16T04:54:06.543Z,98021.06
2022-11-16T04:56:33.359Z,98021.50
2022-11-16T04:59:00.203Z,98026.03
2022-11-16T05:01:45.952Z,98029.75
2022-11-16T05:04:12.826Z,98024.56
2022-11-16T05:06:39.628Z,98032.22
2022-11-16T05:09:06.753Z,98034.91
2022-11-16T05:11:33.502Z,98036.97
2022-11-16T05:14:00.519Z,98033.47
2022-11-16T05:16:27.348Z,98035.53
2022-11-16T05:19:13.088Z,98020.22
2022-11-16T05:21:39.852Z,98024.56
2022-11-16T05:24:25.471Z,98021.47
2022-11-16T05:26:52.254Z,98020.00
2022-11-16T05:29:19.331Z,98022.28
2022-11-16T05:31:46.123Z,98016.25
2022-11-16T05:34:13.125Z,98024.75
2022-11-16T05:36:40.054Z,98020.63
2022-11-16T05:39:07.049Z,98023.31
2022-11-16T05:41:33.997Z,98018.75
2022-11-16T05:44:00.771Z,98013.59
2022-11-16T05:46:27.551Z,98016.66
2022-11-16T05:48:54.460Z,98023.09
2022-11-16T05:51:21.626Z,98018.09
2022-11-16T05:53:49.662Z,98023.91
2022-11-16T05:56:17.212Z,98024.91
2022-11-16T05:58:46.285Z,98012.50
2022-11-16T06:01:13.232Z,98022.63
2022-11-16T06:03:40.075Z,98016.44
2022-11-16T06:06:07.605Z,98009.81
2022-11-16T06:08:34.754Z,98004.25
2022-11-16T06:11:06.757Z,98006.13
2022-11-16T06:13:34.136Z,98007.78
2022-11-16T06:16:01.654Z,98012.13
2022-11-16T06:18:28.561Z,98010.47
2022-11-16T06:20:55.846Z,98011.50
2022-11-16T06:23:23.251Z,98003.63
2022-11-16T06:25:55.148Z,98015.00
2022-11-16T06:28:22.838Z,98016.44
2022-11-16T06:30:50.495Z,98016.63
2022-11-16T06:33:17.617Z,98027.59
2022-11-16T06:35:45.463Z,98034.22
2022-11-16T06:38:18.439Z,98023.69
2022-11-16T06:40:58.272Z,98021.88
2022-11-16T06:43:26.348Z,98026.84
2022-11-16T06:45:56.150Z,98023.53
2022-11-16T06:48:23.652Z,98026.25
2022-11-16T06:50:52.323Z,98016.13
2022-11-16T06:53:23.483Z,98016.53
2022-11-16T06:55:53.044Z,98020.25
2022-11-16T06:58:19.857Z,98027.69
2022-11-16T07:00:46.666Z,98015.06
2022-11-16T07:03:13.626Z,98024.78
2022-11-16T07:05:42.164Z,98020.44
2022-11-16T07:08:09.316Z,98031.41
2022-11-16T07:10:37.905Z,98025.81
2022-11-16T07:13:05.662Z,98030.97
2022-11-16T07:15:33.422Z,98033.06
2022-11-16T07:18:07.567Z,98040.50
2022-11-16T07:20:35.391Z,98041.34
2022-11-16T07:23:03.734Z,98039.28
2022-11-16T07:25:33.554Z,98034.72
2022-11-16T07:28:00.902Z,98031.44
2022-11-16T07:30:27.708Z,98032.25
2022-11-16T07:32:59.311Z,98029.16
2022-11-16T07:35:26.398Z,98028.31
2022-11-16T07:37:53.368Z,98028.09
2022-11-16T07:40:20.926Z,98028.09
2022-11-16T07:42:47.935Z,98029.78
2022-11-16T07:45:14.756Z,98030.59
2022-11-16T07:47:41.620Z,98029.97
2022-11-16T07:50:10.996Z,98036.19
2022-11-16T07:52:37.878Z,98031.19
2022-11-16T07:55:05.983Z,98037.63
2022-11-16T07:57:33.186Z,98042.38
2022-11-16T08:00:00.042Z,98044.44
2022-11-16T08:02:26.901Z,98044.44
2022-11-16T08:04:53.984Z,98048.38
2022-11-16T08:07:21.277Z,98041.75
2022-11-16T08:09:48.512Z,98047.34
2022-11-16T08:12:15.744Z,98035.56
2022-11-16T08:14:42.611Z,98038.03
2022-11-16T08:17:09.464Z,98044.44
2022-11-16T08:19:36.786Z,98050.44
2022-11-16T08:22:04.081Z,98045.72
2022-11-16T08:24:31.555Z,98045.91
2022-11-16T08:26:58.954Z,98040.13
2022-11-16T08:29:26.805Z,98039.75
2022-11-16T08:31:54.456Z,98043.47
2022-11-16T08:34:21.540Z,98041.16
2022-11-16T08:36:48.469Z,98041.78
2022-11-16T08:39:15.318Z,98040.13
2022-11-16T08:41:42.918Z,98042.59
2022-11-16T08:44:10.402Z,98032.91
2022-11-16T08:46:37.208Z,98035.75
2022-11-16T08:49:04.028Z,98040.13
2022-11-16T08:51:31.092Z,98033.50
2022-11-16T08:53:59.206Z,98034.97
2022-11-16T08:56:27.456Z,98035.56
2022-11-16T08:58:58.459Z,98037.81
2022-11-16T09:01:28.949Z,98030.16
2022-11-16T09:03:56.267Z,98031.00
2022-11-16T09:06:25.550Z,98029.13
2022-11-16T09:08:52.963Z,98033.06
2022-11-16T09:11:23.476Z,98030.16
2022-11-16T09:13:53.619Z,98030.97
2022-11-16T09:16:21.312Z,98022.25
2022-11-16T09:18:50.906Z,98027.84
2022-11-16T09:21:19.816Z,98030.75
2022-11-16T09:23:48.295Z,98037.56
2022-11-16T09:26:15.397Z,98040.25
2022-11-16T09:28:42.585Z,98035.88
2022-11-16T09:31:10.365Z,98042.53
2022-11-16T09:33:38.208Z,98046.00
2022-11-16T09:36:08.480Z,98045.78
2022-11-16T09:39:13.277Z,98042.03
2022-11-16T09:41:42.279Z,98040.97
2022-11-16T09:44:58.720Z,98039.06
2022-11-16T09:47:40.602Z,98038.06
2022-11-16T09:50:19.711Z,98040.28
2022-11-16T09:52:51.454Z,98037.75
2022-11-16T09:55:29.168Z,98027.78
2022-11-16T09:58:00.302Z,98029.84
2022-11-16T10:00:29.399Z,98031.84
2022-11-16T10:03:09.860Z,98033.47
2022-11-16T10:05:45.080Z,98018.50
2022-11-16T10:08:28.434Z,98022.56
2022-11-16T10:11:37.046Z,98029.00
2022-11-16T10:14:19.987Z,98031.66
2022-11-16T10:17:01.788Z,98027.09
2022-11-16T10:19:51.204Z,98032.47
2022-11-16T10:22:33.377Z,98037.44
2022-11-16T10:25:07.650Z,98029.16
2022-11-16T10:27:52.095Z,98032.19
2022-11-16T10:30:21.142Z,98034.25
2022-11-16T10:33:04.489Z,98021.56
2022-11-16T10:35:53.026Z,98021.88
2022-11-16T10:38:29.027Z,98018.25
2022-11-16T10:41:03.792Z,98011.06
2022-11-16T10:43:33.123Z,98008.34
2022-11-16T10:46:15.629Z,98008.97
2022-11-16T10:49:17.021Z,97997.50
2022-11-16T10:51:43.990Z,97988.50
2022-11-16T10:54:15.550Z,97990.56
2022-11-16T10:56:46.809Z,98001.91
2022-11-16T10:59:18.590Z,98000.16
2022-11-16T11:01:54.929Z,97998.75
2022-11-16T11:04:24.575Z,97993.53
2022-11-16T11:07:02.867Z,97995.97
2022-11-16T11:09:36.662Z,98000.34
2022-11-16T11:12:33.381Z,97985.31
2022-11-16T11:15:07.989Z,97976.56
2022-11-16T11:17:36.997Z,97993.75
2022-11-16T11:20:24.578Z,97995.53
2022-11-16T11:22:58.754Z,98001.53
2022-11-16T11:25:34.186Z,98011.25
2022-11-16T11:28:17.055Z,98015.03
2022-11-16T11:31:12.185Z,98006.56
2022-11-16T11:33:58.353Z,97999.13
2022-11-16T11:36:35.379Z,97993.75
2022-11-16T11:39:08.902Z,97988.34
2022-11-16T11:41:42.311Z,97985.38
2022-11-16T11:44:17.877Z,97976.63
2022-11-16T11:49:54.613Z,97980.88
2022-11-16T11:52:30.315Z,97983.47
2022-11-16T11:54:57.127Z,97970.59
2022-11-16T11:57:25.862Z,97970.59
2022-11-16T11:59:55.250Z,97966.38
2022-11-16T12:02:37.487Z,97951.81
2022-11-16T12:06:03.089Z,97952.91
2022-11-16T12:08:39.554Z,97937.06
2022-11-16T12:11:40.715Z,97924.59
2022-11-16T12:14:23.423Z,97916.81
2022-11-16T12:17:13.485Z,97911.28
2022-11-16T12:19:56.540Z,97905.75
2022-11-16T12:22:26.291Z,97909.13
2022-11-16T12:25:05.103Z,97907.25
2022-11-16T12:28:13.889Z,97912.34
2022-11-16T12:31:40.000Z,97911.66
2022-11-16T12:34:12.527Z,97912.59
2022-11-16T12:37:04.239Z,97912.00
2022-11-16T12:40:00.647Z,97916.00
2022-11-16T12:42:48.581Z,97916.81
2022-11-16T12:45:39.060Z,97905.78
2022-11-16T12:48:49.720Z,97911.56
2022-11-16T12:51:45.766Z,97922.44
2022-11-16T12:54:57.693Z,97926.25
2022-11-16T12:58:06.794Z,97915.44
2022-11-16T13:00:57.541Z,97921.59
2022-11-16T13:03:49.441Z,97909.69
2022-11-16T13:06:49.524Z,97907.50
2022-11-16T13:09:22.468Z,97889.63
2022-11-16T13:11:56.375Z,97880.69
2022-11-16T13:14:33.995Z,97877.53
2022-11-16T13:17:03.394Z,97883.09
2022-11-16T13:19:31.442Z,97875.44
2022-11-16T13:22:04.911Z,97859.69
2022-11-16T13:24:46.643Z,97854.03
2022-11-16T13:27:49.647Z,97850.72
2022-11-16T13:30:20.752Z,97844.50
2022-11-16T13:33:03.595Z,97835.31
2022-11-16T13:35:30.755Z,97838.97
2022-11-16T13:37:57.538Z,97824.59
2022-11-16T13:40:25.741Z,97817.06
2022-11-16T13:43:15.642Z,97808.22
2022-11-16T13:45:51.848Z,97808.94
2022-11-16T13:48:38.125Z,97807.28
2022-11-16T13:51:15.599Z,97807.50
2022-11-16T13:56:51.632Z,97807.06
2022-11-16T13:59:26.903Z,97804.94
2022-11-16T14:02:09.121Z,97800.34
2022-11-16T14:04:43.432Z,97797.19
2022-11-16T14:07:51.960Z,97794.72
2022-11-16T14:10:34.011Z,97791.44
2022-11-16T14:13:05.615Z,97788.88
2022-11-16T14:15:36.058Z,97777.84
2022-11-16T14:18:12.354Z,97781.13
2022-11-16T14:20:54.275Z,97787.34
2022-11-16T14:23:55.861Z,97781.50
2022-11-16T14:26:51.529Z,97773.38
2022-11-16T14:29:49.503Z,97769.38
2022-11-16T14:32:31.801Z,97760.19
2022-11-16T14:35:01.031Z,97761.50
2022-11-16T14:37:37.343Z,97753.41
2022-11-16T14:40:16.428Z,97748.00
2022-11-16T14:43:21.745Z,97744.47
2022-11-16T14:45:55.564Z,97736.16
2022-11-16T14:48:27.126Z,97732.59
2022-11-16T14:51:07.036Z,97736.59
2022-11-16T14:53:39.954Z,97739.06
2022-11-16T14:56:11.034Z,97733.44
2022-11-16T14:58:39.292Z,97727.47
2022-11-16T15:01:14.941Z,97724.13
2022-11-16T15:04:04.663Z,97719.44
2022-11-16T15:06:50.117Z,97712.53
2022-11-16T15:09:29.534Z,97708.06
2022-11-16T15:12:27.095Z,97696.19
2022-11-16T15:14:58.024Z,97700.78
2022-11-16T15:17:31.796Z,97694.31
2022-11-16T15:20:25.727Z,97688.06
2022-11-16T15:22:56.850Z,97687.25
2022-11-16T15:25:43.417Z,97685.88
2022-11-16T15:28:18.391Z,97687.75
2022-11-16T15:30:53.365Z,97693.63
2022-11-16T15:33:29.482Z,97683.41
2022-11-16T15:35:57.769Z,97682.59
2022-11-16T15:38:28.357Z,97691.50
2022-11-16T15:41:04.392Z,97673.91
2022-11-16T15:44:12.191Z,97671.41
2022-11-16T15:46:38.671Z,97670.00
2022-11-16T15:49:25.311Z,97671.41
2022-11-16T15:51:52.157Z,97663.78
2022-11-16T15:54:28.481Z,97668.22
2022-11-16T15:57:08.283Z,97653.91
2022-11-16T15:59:37.318Z,97652.75
2022-11-16T16:02:04.910Z,97656.50
2022-11-16T16:04:32.008Z,97649.47
2022-11-16T16:07:00.502Z,97645.34
2022-11-16T16:09:37.285Z,97645.59
2022-11-16T16:12:21.691Z,97634.16
2022-11-16T16:14:51.448Z,97633.34
2022-11-16T16:17:46.344Z,97622.19
2022-11-16T16:20:30.543Z,97618.47
2022-11-16T16:23:25.056Z,97620.94
2022-11-16T16:25:51.797Z,97608.25
2022-11-16T16:28:18.769Z,97600.59
2022-11-16T16:30:45.710Z,97603.22
2022-11-16T16:33:19.624Z,97605.06
2022-11-16T16:35:49.894Z,97601.19
2022-11-16T16:38:16.855Z,97598.09
2022-11-16T16:40:43.650Z,97599.78
2022-11-16T16:43:10.485Z,97593.78
2022-11-16T16:45:41.571Z,97589.66
2022-11-16T16:48:09.656Z,97585.69
2022-11-16T16:50:37.440Z,97579.69
2022-11-16T16:53:05.005Z,97573.00
2022-11-16T16:55:36.946Z,97568.91
2022-11-16T16:58:05.119Z,97568.41
2022-11-16T17:00:32.221Z,97556.81
2022-11-16T17:02:59.067Z,97557.03
2022-11-16T17:05:29.014Z,97555.53
2022-11-16T17:07:56.669Z,97552.22
2022-11-16T17:10:23.810Z,97548.28
2022-11-16T17:12:54.373Z,97554.09
2022-11-16T17:15:21.978Z,97553.03
2022-11-16T17:17:48.844Z,97543.94
2022-11-16T17:20:16.598Z,97540.63
2022-11-16T17:22:43.787Z,97538.31
2022-11-16T17:25:11.064Z,97541.00
2022-11-16T17:27:38.044Z,97524.81
2022-11-16T17:30:05.527Z,97546.41
2022-11-16T17:32:32.425Z,97534.53
2022-11-16T17:34:59.197Z,97537.00
2022-11-16T17:37:26.341Z,97530.63
2022-11-16T17:39:53.247Z,97525.84
2022-11-16T17:42:20.023Z,97514.44
2022-11-16T17:44:46.800Z,97524.00
2022-11-16T17:47:13.685Z,97519.63
2022-11-16T17:49:40.803Z,97519.84
2022-11-16T17:52:07.750Z,97516.13
2022-11-16T17:54:34.520Z,97521.28
2022-11-16T17:57:01.295Z,97519.25
2022-11-16T17:59:29.828Z,97510.72
2022-11-16T18:01:58.297Z,97519.03
2022-11-16T18:04:25.410Z,97517.63
2022-11-16T18:06:52.360Z,97514.94
2022-11-16T18:09:19.264Z,97511.38
2022-11-16T18:11:46.184Z,97510.00
2022-11-16T18:14:13.278Z,97499.19
2022-11-16T18:16:44.228Z,97495.19
2022-11-16T18:19:17.722Z,97493.34
2022-11-16T18:21:45.819Z,97493.78
2022-11-16T18:24:13.975Z,97494.03
2022-11-16T18:26:41.855Z,97492.13
2022-11-16T18:29:16.394Z,97496.97
2022-11-16T18:31:44.672Z,97496.50
2022-11-16T18:34:15.101Z,97486.75
2022-11-16T18:36:50.952Z,97485.69
2022-11-16T18:39:19.283Z,97483.81
2022-11-16T18:41:53.361Z,97483.00
2022-11-16T18:44:24.137Z,97474.09
2022-11-16T18:46:53.597Z,97481.84
2022-11-16T18:49:26.326Z,97475.94
2022-11-16T18:51:57.220Z,97477.59
2022-11-16T18:54:25.598Z,97465.41
2022-11-16T18:56:57.535Z,97461.88
2022-11-16T18:59:35.278Z,97461.88
2022-11-16T19:02:03.099Z,97464.69
2022-11-16T19:04:30.996Z,97465.72
2022-11-16T19:06:58.883Z,97457.41
2022-11-16T19:09:27.018Z,97457.56
2022-11-16T19:11:54.839Z,97455.06
2022-11-16T19:14:22.558Z,97463.78
2022-11-16T19:16:55.653Z,97449.56
2022-11-16T19:19:24.444Z,97455.22
2022-11-16T19:21:52.456Z,97446.66
2022-11-16T19:24:19.425Z,97442.63
2022-11-16T19:26:46.452Z,97437.34
2022-11-16T19:29:13.464Z,97437.00
2022-11-16T19:31:40.513Z,97436.50
2022-11-16T19:34:11.345Z,97435.47
2022-11-16T19:36:38.503Z,97426.56
2022-11-16T19:39:06.214Z,97424.91
2022-11-16T19:41:33.531Z,97426.28
2022-11-16T19:44:02.085Z,97430.31
2022-11-16T19:46:32.604Z,97424.09
2022-11-16T19:49:00.767Z,97418.19
2022-11-16T19:51:31.311Z,97415.41
2022-11-16T19:54:02.654Z,97419.38
2022-11-16T19:56:30.017Z,97411.63
2022-11-16T19:58:58.007Z,97403.53
2022-11-16T20:01:29.393Z,97400.03
2022-11-16T20:03:59.823Z,97392.97
2022-11-16T20:06:35.978Z,97393.81
2022-11-16T20:09:11.754Z,97393.59
2022-11-16T20:11:41.039Z,97389.00
2022-11-16T20:14:14.450Z,97383.59
2022-11-16T20:16:43.859Z,97377.13
2022-11-16T20:19:11.589Z,97375.97
2022-11-16T20:21:43.693Z,97374.06
2022-11-16T20:24:18.426Z,97369.75
2022-11-16T20:26:48.887Z,97372.69
2022-11-16T20:29:18.582Z,97369.41
2022-11-16T20:31:46.509Z,97371.06
2022-11-16T20:34:17.151Z,97371.06
2022-11-16T20:36:51.783Z,97365.06
2022-11-16T20:39:20.875Z,97369.75
2022-11-16T20:41:48.504Z,97368.59
2022-11-16T20:44:24.011Z,97361.56
2022-11-16T20:46:52.809Z,97356.16
2022-11-16T20:49:20.028Z,97356.16
2022-11-16T20:51:48.606Z,97357.81
2022-11-16T20:54:16.376Z,97345.47
2022-11-16T20:56:44.815Z,97338.69
2022-11-16T20:59:11.977Z,97341.09
2022-11-16T21:01:39.165Z,97345.69
2022-11-16T21:04:06.896Z,97339.72
2022-11-16T21:06:34.295Z,97344.53
2022-11-16T21:09:01.974Z,97340.19
2022-11-16T21:11:52.103Z,97339.72
2022-11-16T21:14:20.741Z,97337.25
2022-11-16T21:16:47.965Z,97332.44
2022-11-16T21:19:15.922Z,97340.53
2022-11-16T21:21:43.098Z,97335.88
2022-11-16T21:24:11.030Z,97335.72
2022-11-16T21:26:38.530Z,97337.03
2022-11-16T21:29:05.646Z,97324.91
2022-11-16T21:31:35.807Z,97328.69
2022-11-16T21:34:03.665Z,97327.88
2022-11-16T21:36:32.418Z,97319.66
2022-11-16T21:39:00.154Z,97321.06
2022-11-16T21:41:28.055Z,97315.91
2022-11-16T21:43:55.935Z,97307.81
2022-11-16T21:46:26.784Z,97309.13
2022-11-16T21:48:56.797Z,97317.78
2022-11-16T21:51:27.228Z,97311.81
2022-11-16T21:53:55.533Z,97303.09
2022-11-16T21:56:25.663Z,97303.56
2022-11-16T21:58:53.530Z,97309.81
2022-11-16T22:01:22.938Z,97304.88
2022-11-16T22:04:10.001Z,97297.38
2022-11-16T22:06:55.234Z,97299.50
2022-11-16T22:09:22.129Z,97297.38
2022-11-16T22:11:48.876Z,97307.00
2022-11-16T22:14:15.641Z,97305.13
2022-11-16T22:16:42.507Z,97305.13
2022-11-16T22:19:09.312Z,97307.47
2022-11-16T22:21:36.159Z,97304.53
2022-11-16T22:24:03.410Z,97304.78
2022-11-16T22:26:30.181Z,97299.63
2022-11-16T22:28:58.583Z,97298.81
2022-11-16T22:31:25.338Z,97305.34
2022-11-16T22:33:53.764Z,97301.63
2022-11-16T22:36:20.851Z,97299.97
2022-11-16T22:38:47.675Z,97308.91
2022-11-16T22:41:14.654Z,97305.34
2022-11-16T22:43:41.419Z,97304.53
2022-11-16T22:46:09.967Z,97303.25
2022-11-16T22:48:41.254Z,97303.25
2022-11-16T22:51:26.703Z,97306.19
2022-11-16T22:54:04.164Z,97300.47
2022-11-16T22:56:33.336Z,97300.19
2022-11-16T22:59:01.348Z,97296.44
2022-11-16T23:01:28.894Z,97296.78
2022-11-16T23:03:56.401Z,97300.47
2022-11-16T23:06:23.302Z,97296.22
2022-11-16T23:08:50.609Z,97289.50
2022-11-16T23:11:39.496Z,97298.09
2022-11-16T23:14:29.641Z,97286.22
2022-11-16T23:16:56.950Z,97290.81
2022-11-16T23:19:43.121Z,97278.38
2022-11-16T23:22:38.087Z,97283.19
2022-11-16T23:25:26.167Z,97282.63
2022-11-16T23:28:06.001Z,97270.50
2022-11-16T23:30:35.428Z,97275.09
2022-11-16T23:33:03.736Z,97276.75
2022-11-16T23:35:30.564Z,97273.09
2022-11-16T23:38:03.855Z,97272.97
2022-11-16T23:40:39.816Z,97277.91
2022-11-16T23:43:28.130Z,97275.44
2022-11-16T23:45:55.103Z,97272.97
2022-11-16T23:48:21.899Z,97272.97
2022-11-16T23:50:48.763Z,97264.31
2022-11-16T23:53:15.887Z,97261.03
2022-11-16T23:55:42.715Z,97252.38
2022-11-16T23:58:14.976Z,97258.91
